METAR Data
IDs: Format: Raw Decoded Include TAF

Data at: 0458 UTC 03 Jul 2022

Region: TOP
KATL 030452Z 26005KT 10SM FEW200 26/22 A3005 RMK AO2 SLP165 T02610217 403280222 $

KBOS 030454Z 27006KT 10SM FEW047 OVC220 23/18 A2991 RMK AO2 SLP126 T02280183 403060217

KBWI 030454Z 21005KT 7SM -TSRA FEW040CB SCT100 SCT120 BKN140 OVC250 23/21 A2997 RMK AO2 LTG DSNT SE-SW RAB27 TSB13 SLP147 CONS LTGICCC SE-SW TS SE-SW MOV E P0001 T02280206 403440228 $

KCLE 030451Z 24003KT 10SM BKN210 21/13 A3004 RMK AO2 SLP182 T02060133 402780194

KCLT 030452Z 24003KT 10SM FEW060 BKN250 24/21 A3001 RMK SLP153 T02440206 403440200

KCVG 030452Z 36003KT 10SM -RA FEW055 SCT090 OVC110 24/17 A3006 RMK AO2 RAE0357B44 SLP168 P0000 T02440172 403060211 $

KDCA 030452Z 04009KT 10SM FEW030CB BKN140 BKN250 24/21 A2997 RMK AO2 LTG DSNT NE AND E SLP149 OCNL LTGICCC VC NE-E CB VC NE-E MOV E T02390206 403170239 $

KDEN 030453Z 21010KT 10SM FEW150 FEW220 22/10 A3010 RMK AO2 SLP109 T02220100 $

KDFW 030453Z 12009KT 10SM FEW250 28/22 A2993 RMK AO2 SLP125 T02830217

KDTW 030453Z 36005KT 10SM SCT250 21/11 A3006 RMK AO2 SLP176 T02110106 402940139

KEWR 030451Z 22008KT 10SM BKN060 BKN250 28/19 A2993 RMK AO2 SLP136 T02830189 403560261

KFLL 030453Z 12010KT 10SM FEW025 29/23 A3006 RMK AO2 SLP180 T02890233 403170244

KIAD 030452Z 11003KT 10SM BKN031 OVC042 24/21 A2996 RMK AO2 TSE0358 SLP142 OCNL LTGIC DSNT E T02390206 403280239 $

KIAH 030453Z 18006KT 10SM SCT020 28/24 A2997 RMK AO2 SLP148 T02830239

KJFK 030451Z 26007KT 10SM SCT055 BKN250 26/21 A2994 RMK AO2 SLP140 T02610211 403060228

KLAS 030356Z 22004KT 10SM CLR 35/05 A2972 RMK AO2 SLP033 T03500050

KLAX 030453Z 26008KT 10SM FEW010 18/13 A2991 RMK AO2 SLP125 T01830128 $

KLGA 030451Z 10004KT 10SM FEW043 SCT070 BKN250 26/19 A2993 RMK AO2 SLP134 T02610189 403280250 $

KMCO 030453Z 00000KT 10SM BKN150 OVC250 26/23 A3010 RMK AO2 SLP190 T02610233 403280239

KMDW 030453Z 20005KT 10SM BKN130 24/09 A3007 RMK AO2 SLP171 T02440089

KMEM 030454Z 18006KT 10SM SCT200 26/22 A3000 RMK AO2 SLP152 T02610222

KMIA 030453Z 10009KT 10SM FEW026 SCT034 29/23 A3007 RMK AO2 SLP184 T02890233 403220261 $

KMSP 030453Z 17007KT 10SM CLR 21/16 A3007 RMK AO2 SLP179 T02060156

KORD 030451Z 20006KT 10SM BKN110 24/09 A3006 RMK AO2 SLP175 T02390094

KPDX 030453Z 31009KT 10SM BKN039 BKN180 18/11 A2994 RMK AO2 SLP137 T01780111

KPHL 030454Z 25007KT 10SM SCT085 BKN120 24/22 A2995 RMK AO2 RAE51 SLP142 P0000 T02390222 403440239 $

KPHX 030451Z 21004KT 10SM FEW100 FEW180 37/11 A2973 RMK AO2 SLP045 T03670106

KPIT 030451Z 35003KT 10SM OVC180 22/11 A3005 RMK AO2 SLP174 T02170106 402940200

KSAN 030451Z 29004KT 10SM FEW015 19/14 A2994 RMK AO2 SLP138 T01890144

KSEA 030453Z 22006KT 10SM FEW025 BKN039 17/12 A2992 RMK AO2 SLP135 T01670122 $

KSFO 030356Z 27014G24KT 10SM FEW004 BKN011 OVC017 15/11 A2998 RMK AO2 PK WND 26030/0316 SLP153 T01500111

KSLC 030454Z 16010KT 10SM FEW100 SCT160 31/06 A2977 RMK AO2 SLP008 T03110061

KSTL 030451Z 09003KT 10SM BKN070 OVC080 24/21 A3006 RMK AO2 RAE32 SLP168 P0001 T02390211

KTPA 030453Z 04003KT 10SM FEW250 BKN300 27/22 A3009 RMK AO2 SLP187 T02720222 403280267